Search for airport 
image banner adimage banner adimage banner ad
image banner ad

KGAB - Gabbs

Located in Gabbs, United States

ICAO - GAB, IATA -

Data provided by Airmate  

General information

Coordinates: N38°55'20" W117°57'31"
Elevation is 4699 feet MSL.
Magnetic variation is 15° East
View others Airports in Nevada

Operational data

Special qualification required
Current time UTC:
Current local time:
Weather at : KHTH - Hawthorne Industrial ( 72 km )
METAR: KHTH 092315Z AUTO 32012G17KT 10SM CLR 22/M10 A2992 RMK A01
View NOTAMs / SUP AIP / TFR affecting this airport [VIEW]
Communications frequencies: [VIEW]

Runways:

RWY identifierQFULength (ft)Width (ft)SurfaceLDA (ft)
16175°265075EARTH
34355°265075EARTH
09101°595065EARTH
27281°595065EARTH

Airport contact information

Address: Gabbs United States

Satellite view of KGAB